Time;durP1;ratioP1;P1;durP2;ratioP2;P2;SDS_P1;SDS_P2;PMS_P1;PMS_P2;Temp;Humidity;BMP_temperature;BMP_pressure;BME280_temperature;BME280_humidity;BME280_pressure;Samples;Min_cycle;Max_cycle;Signal;HPM_P1;HPM_P2
2021/10/05 00:00:56;;;;;;;;;;;;;;;21.82;53.14;101719.09;2075182;28;1109;-53
2021/10/05 00:01:56;;;;;;;;;;;;;;;21.84;52.73;101727.13;2075478;28;748;-53
2021/10/05 00:02:57;;;;;;;;;;;;;;;21.83;53.52;101722.66;2075396;28;783;-53
2021/10/05 00:03:57;;;;;;;;;;;;;;;21.81;53.33;101724.50;2075401;28;981;-53
2021/10/05 00:04:57;;;;;;;;;;;;;;;21.79;53.66;101735.34;2075412;28;1060;-53
2021/10/05 00:05:58;;;;;;;;;;;;;;;21.81;52.87;101724.50;2075303;28;973;-53
2021/10/05 00:06:58;;;;;;;;;;;;;;;21.76;53.23;101725.53;2075406;28;859;-53
2021/10/05 00:07:58;;;;;;;;;;;;;;;21.76;53.85;101730.94;2075486;28;954;-53
2021/10/05 00:08:58;;;;;;;;;;;;;;;21.78;53.59;101728.19;2074942;28;1037;-53
2021/10/05 00:09:58;;;;;;;;;;;;;;;21.76;53.32;101730.94;2075384;28;808;-53
2021/10/05 00:10:59;;;;;;;;;;;;;;;21.77;52.90;101734.50;2075334;28;1172;-54
2021/10/05 00:11:59;;;;;;;;;;;;;;;21.77;52.92;101731.81;2075157;28;1356;-53
2021/10/05 00:12:59;;;;;;;;;;;;;;;21.77;53.17;101737.19;2075396;28;838;-53
2021/10/05 00:13:59;;;;;;;;;;;;;;;21.76;53.96;101736.31;2075341;28;1906;-53
2021/10/05 00:15:00;;;;;;;;;;;;;;;21.75;53.91;101739.94;2075292;28;799;-53
2021/10/05 00:16:00;;;;;;;;;;;;;;;21.75;53.40;101739.03;2075325;28;1138;-53
2021/10/05 00:17:00;;;;;;;;;;;;;;;21.75;53.88;101734.56;2075253;28;867;-53
2021/10/05 00:18:00;;;;;;;;;;;;;;;21.75;53.57;101739.03;2075155;28;831;-53
2021/10/05 00:19:00;;;;;;;;;;;;;;;21.74;53.42;101731.88;2075212;28;997;-53
2021/10/05 00:20:01;;;;;;;;;;;;;;;21.74;53.75;101732.78;2075290;28;709;-54
2021/10/05 00:21:01;;;;;;;;;;;;;;;21.75;53.08;101733.66;2075149;28;903;-53
2021/10/05 00:22:02;;;;;;;;;;;;;;;21.75;53.70;101733.66;2075287;28;1206;-53
2021/10/05 00:23:02;;;;;;;;;;;;;;;21.75;53.31;101731.84;2075140;28;1032;-53
2021/10/05 00:24:03;;;;;;;;;;;;;;;21.73;53.13;101733.69;2075214;28;808;-53
2021/10/05 00:25:03;;;;;;;;;;;;;;;21.71;54.04;101726.56;2075121;28;875;-53
2021/10/05 00:26:03;;;;;;;;;;;;;;;21.72;54.08;101731.94;2066359;28;1406;-53
2021/10/05 00:27:04;;;;;;;;;;;;;;;21.74;53.24;101731.88;2066437;28;847;-53
2021/10/05 00:28:06;;;;;;;;;;;;;;;21.74;53.78;101731.88;2075191;28;970;-53
2021/10/05 00:29:06;;;;;;;;;;;;;;;21.70;54.01;101728.38;2074920;28;870;-53
2021/10/05 00:30:07;;;;;;;;;;;;;;;21.73;54.17;101730.09;2075208;28;966;-53
2021/10/05 00:31:07;;;;;;;;;;;;;;;21.72;53.73;101729.22;2075219;28;870;-53
2021/10/05 00:32:07;;;;;;;;;;;;;;;21.72;54.11;101723.84;2075263;28;1060;-53
2021/10/05 00:33:07;;;;;;;;;;;;;;;21.72;53.72;101737.31;2075193;28;1002;-53
2021/10/05 00:34:08;;;;;;;;;;;;;;;21.69;53.98;101731.09;2075008;28;1894;-53
2021/10/05 00:35:08;;;;;;;;;;;;;;;21.72;53.56;101739.13;2075168;28;764;-53
2021/10/05 00:36:08;;;;;;;;;;;;;;;21.73;53.61;101731.00;2075258;28;808;-53
2021/10/05 00:37:09;;;;;;;;;;;;;;;21.71;53.86;101735.53;2074765;28;1211;-53
2021/10/05 00:38:09;;;;;;;;;;;;;;;21.70;53.86;101731.06;2075108;28;982;-53
2021/10/05 00:39:09;;;;;;;;;;;;;;;21.70;53.22;101741.88;2075159;28;1337;-53
2021/10/05 00:40:09;;;;;;;;;;;;;;;21.69;53.16;101739.19;2075119;28;1112;-53
2021/10/05 00:41:09;;;;;;;;;;;;;;;21.68;53.26;101741.00;2075080;28;1289;-53
2021/10/05 00:42:10;;;;;;;;;;;;;;;21.70;53.30;101741.88;2075077;28;1045;-53
2021/10/05 00:43:10;;;;;;;;;;;;;;;21.70;53.27;101733.78;2074803;28;829;-53
2021/10/05 00:44:10;;;;;;;;;;;;;;;21.69;53.67;101734.69;2075159;28;1408;-53
2021/10/05 00:45:10;;;;;;;;;;;;;;;21.69;53.43;101726.59;2074998;28;816;-53
2021/10/05 00:46:10;;;;;;;;;;;;;;;21.68;53.23;101732.03;2074915;28;1361;-53
2021/10/05 00:47:12;;;;;;;;;;;;;;;21.69;53.17;101729.31;2083242;28;774;-53
2021/10/05 00:48:12;;;;;;;;;;;;;;;21.68;53.76;101724.84;2083301;28;933;-53
2021/10/05 00:49:12;;;;;;;;;;;;;;;21.68;53.45;101727.53;2082896;28;792;-53
2021/10/05 00:50:15;;;;;;;;;;;;;;;21.69;53.58;101733.78;2083249;28;783;-53
2021/10/05 00:51:15;;;;;;;;;;;;;;;21.67;53.26;101728.44;2082935;28;976;-53
2021/10/05 00:52:17;;;;;;;;;;;;;;;21.67;53.95;101733.84;2083303;28;1056;-53
2021/10/05 00:53:17;;;;;;;;;;;;;;;21.66;53.04;101734.78;2083198;28;1051;-53
2021/10/05 00:54:17;;;;;;;;;;;;;;;21.68;53.98;101735.63;2082973;28;1953;-53
2021/10/05 00:55:18;;;;;;;;;;;;;;;21.67;53.86;101736.53;2083207;28;886;-53
2021/10/05 00:56:18;;;;;;;;;;;;;;;21.68;53.47;101741.00;2083249;28;1016;-53
2021/10/05 00:57:18;;;;;;;;;;;;;;;21.68;53.84;101738.31;2083009;28;772;-53
2021/10/05 00:58:18;;;;;;;;;;;;;;;21.67;53.47;101744.63;2083298;28;866;-53
2021/10/05 00:59:18;;;;;;;;;;;;;;;21.70;53.23;101746.34;2083037;28;878;-53
2021/10/05 01:00:19;;;;;;;;;;;;;;;21.69;53.26;101736.50;2083165;28;944;-53
2021/10/05 01:01:20;;;;;;;;;;;;;;;21.64;54.09;101742.00;2083264;28;879;-53
2021/10/05 01:02:20;;;;;;;;;;;;;;;21.67;53.16;101743.72;2083124;28;976;-53
2021/10/05 01:03:20;;;;;;;;;;;;;;;21.65;53.41;101742.88;2082952;28;1374;-54
2021/10/05 01:04:20;;;;;;;;;;;;;;;21.62;53.44;101743.84;2083164;28;846;-53
2021/10/05 01:05:20;;;;;;;;;;;;;;;21.66;54.44;101744.66;2083059;28;866;-53
2021/10/05 01:06:21;;;;;;;;;;;;;;;21.66;53.45;101741.94;2083202;28;1055;-53
2021/10/05 01:07:21;;;;;;;;;;;;;;;21.68;53.47;101742.81;2083139;28;984;-54
2021/10/05 01:08:21;;;;;;;;;;;;;;;21.67;53.02;101747.31;2083226;28;759;-54
2021/10/05 01:09:22;;;;;;;;;;;;;;;21.65;53.31;101743.78;2083154;28;981;-53
2021/10/05 01:10:22;;;;;;;;;;;;;;;21.64;53.78;101736.59;2083059;28;858;-53
2021/10/05 01:11:24;;;;;;;;;;;;;;;21.64;54.15;101744.69;2083121;28;1220;-53
2021/10/05 01:12:24;;;;;;;;;;;;;;;21.65;54.02;101743.78;2082945;28;1316;-53
2021/10/05 01:13:24;;;;;;;;;;;;;;;21.63;53.35;101745.63;2082824;28;953;-53
2021/10/05 01:14:24;;;;;;;;;;;;;;;21.66;53.98;101741.94;2083112;28;1909;-53
2021/10/05 01:15:26;;;;;;;;;;;;;;;21.64;54.02;101747.41;2083164;28;992;-54
2021/10/05 01:16:26;;;;;;;;;;;;;;;21.64;53.85;101751.88;2082948;28;823;-53
2021/10/05 01:17:26;;;;;;;;;;;;;;;21.66;53.34;101744.66;2083126;28;977;-53
2021/10/05 01:18:26;;;;;;;;;;;;;;;21.63;53.72;101742.94;2083144;28;910;-53
2021/10/05 01:19:26;;;;;;;;;;;;;;;21.65;53.70;101750.97;2083161;28;783;-53
2021/10/05 01:20:27;;;;;;;;;;;;;;;21.62;53.21;101747.41;2083149;28;850;-53
2021/10/05 01:21:27;;;;;;;;;;;;;;;21.63;53.72;101740.22;2074316;28;717;-54
2021/10/05 01:22:27;;;;;;;;;;;;;;;21.65;53.76;101738.38;2074442;28;966;-53
2021/10/05 01:23:28;;;;;;;;;;;;;;;21.62;54.17;101738.47;2082902;28;1036;-54
2021/10/05 01:24:29;;;;;;;;;;;;;;;21.65;53.65;101733.00;2082656;28;1631;-53
2021/10/05 01:25:31;;;;;;;;;;;;;;;21.64;53.69;101736.59;2083162;28;822;-53
2021/10/05 01:26:32;;;;;;;;;;;;;;;21.66;53.47;101736.56;2083099;28;803;-53
2021/10/05 01:27:39;;;;;;;;;;;;;;;21.65;53.99;101734.78;2082973;28;870;-53
2021/10/05 01:28:39;;;;;;;;;;;;;;;21.66;53.70;101741.94;2083157;28;870;-53
2021/10/05 01:29:39;;;;;;;;;;;;;;;21.66;53.19;101745.56;2082859;28;1040;-53
2021/10/05 01:30:39;;;;;;;;;;;;;;;21.63;53.56;101737.53;2083113;28;977;-53
2021/10/05 01:31:44;;;;;;;;;;;;;;;21.67;53.03;101736.53;2083063;28;1031;-53
2021/10/05 01:32:44;;;;;;;;;;;;;;;21.64;53.17;101741.09;2082956;28;997;-53
2021/10/05 01:33:45;;;;;;;;;;;;;;;21.61;53.58;101733.94;2083123;28;850;-53
2021/10/05 01:34:45;;;;;;;;;;;;;;;21.63;53.22;101734.84;2083123;28;1886;-54
2021/10/05 01:35:45;;;;;;;;;;;;;;;21.64;53.41;101728.53;2083043;28;1052;-53
2021/10/05 01:36:45;;;;;;;;;;;;;;;21.64;53.07;101735.72;2083079;28;1176;-53
2021/10/05 01:37:46;;;;;;;;;;;;;;;21.63;53.20;101732.16;2083082;28;791;-53
2021/10/05 01:38:46;;;;;;;;;;;;;;;21.64;53.94;101735.72;2083009;28;891;-53
2021/10/05 01:39:46;;;;;;;;;;;;;;;21.65;53.37;101733.00;2083024;28;864;-53
2021/10/05 01:40:46;;;;;;;;;;;;;;;21.64;53.68;101736.59;2082943;28;847;-53
2021/10/05 01:41:47;;;;;;;;;;;;;;;21.65;53.17;101732.09;2083061;28;912;-53
2021/10/05 01:42:47;;;;;;;;;;;;;;;21.66;53.46;101733.88;2083100;28;840;-53
2021/10/05 01:43:47;;;;;;;;;;;;;;;21.65;53.51;101733.00;2082671;28;807;-53
2021/10/05 01:44:48;;;;;;;;;;;;;;;21.66;53.76;101739.25;2083072;28;790;-53
2021/10/05 01:45:49;;;;;;;;;;;;;;;21.66;53.48;101740.16;2083005;28;752;-53
2021/10/05 01:46:50;;;;;;;;;;;;;;;21.68;53.54;101742.81;2083109;28;811;-53
2021/10/05 01:47:50;;;;;;;;;;;;;;;21.63;53.84;101740.22;2083089;28;779;-53
2021/10/05 01:48:51;;;;;;;;;;;;;;;21.63;53.80;101742.94;2082956;28;977;-53
2021/10/05 01:49:51;;;;;;;;;;;;;;;21.64;53.33;101744.69;2082811;28;1005;-53
2021/10/05 01:50:51;;;;;;;;;;;;;;;21.63;53.15;101740.22;2083045;28;821;-53
2021/10/05 01:51:51;;;;;;;;;;;;;;;21.62;54.01;101741.16;2082926;28;854;-53
2021/10/05 01:52:51;;;;;;;;;;;;;;;21.64;53.35;101733.00;2082984;28;760;-53
2021/10/05 01:53:52;;;;;;;;;;;;;;;21.64;53.32;101736.59;2083059;28;776;-53
2021/10/05 01:54:52;;;;;;;;;;;;;;;21.64;53.71;101731.22;2082908;28;1948;-53
2021/10/05 01:55:52;;;;;;;;;;;;;;;21.62;53.40;101735.75;2082947;28;993;-53
2021/10/05 01:56:52;;;;;;;;;;;;;;;21.64;53.86;101733.00;2082999;28;993;-53
2021/10/05 01:57:52;;;;;;;;;;;;;;;21.64;53.77;101731.22;2074131;28;1279;-53
2021/10/05 01:58:54;;;;;;;;;;;;;;;21.63;53.86;101732.16;2074302;28;1009;-53
2021/10/05 01:59:54;;;;;;;;;;;;;;;21.64;53.66;101744.69;2083008;28;823;-53
2021/10/05 02:00:54;;;;;;;;;;;;;;;21.61;53.50;101742.03;2082936;28;1072;-53
2021/10/05 02:01:55;;;;;;;;;;;;;;;21.65;53.06;101743.78;2083003;28;989;-53
2021/10/05 02:02:56;;;;;;;;;;;;;;;21.63;53.62;101742.94;2082677;28;811;-53
2021/10/05 02:03:56;;;;;;;;;;;;;;;21.61;53.49;101739.34;2082974;28;1107;-53
2021/10/05 02:04:56;;;;;;;;;;;;;;;21.64;53.77;101742.00;2082887;28;1313;-53
2021/10/05 02:05:56;;;;;;;;;;;;;;;21.61;54.01;101736.66;2082787;28;1048;-53
2021/10/05 02:06:56;;;;;;;;;;;;;;;21.62;53.23;101739.31;2082989;28;814;-53
2021/10/05 02:07:56;;;;;;;;;;;;;;;21.61;53.52;101742.03;2082974;28;925;-53
2021/10/05 02:08:57;;;;;;;;;;;;;;;21.61;53.52;101740.22;2082605;28;925;-53
2021/10/05 02:09:57;;;;;;;;;;;;;;;21.61;53.20;101736.66;2082887;28;1637;-53
2021/10/05 02:10:57;;;;;;;;;;;;;;;21.60;54.05;101745.66;2082932;28;1040;-53
2021/10/05 02:11:57;;;;;;;;;;;;;;;21.62;53.41;101738.47;2082850;28;950;-53
2021/10/05 02:12:58;;;;;;;;;;;;;;;21.64;52.99;101741.09;2082677;28;1216;-53
2021/10/05 02:13:58;;;;;;;;;;;;;;;21.64;53.68;101743.81;2082908;28;1911;-53
2021/10/05 02:14:58;;;;;;;;;;;;;;;21.62;53.22;101741.16;2082587;28;929;-53
2021/10/05 02:15:59;;;;;;;;;;;;;;;21.63;53.63;101734.84;2082963;28;985;-53
2021/10/05 02:16:59;;;;;;;;;;;;;;;21.61;53.70;101732.13;2082984;28;783;-54
2021/10/05 02:17:59;;;;;;;;;;;;;;;21.61;53.05;101739.34;2084081;28;787;-53
2021/10/05 02:18:59;;;;;;;;;;;;;;;21.59;53.31;101733.09;2084346;28;1316;-53
2021/10/05 02:19:59;;;;;;;;;;;;;;;21.62;53.54;101728.53;2084504;28;846;-53
2021/10/05 02:20:59;;;;;;;;;;;;;;;21.61;53.87;101732.13;2084293;28;915;-53
2021/10/05 02:22:00;;;;;;;;;;;;;;;21.60;53.82;101729.47;2084368;28;985;-53
2021/10/05 02:23:00;;;;;;;;;;;;;;;21.60;53.89;101729.47;2084164;28;1037;-53
2021/10/05 02:25:19;;;;;;;;;;;;;;;21.62;53.03;101720.44;2084412;28;638;-54
2021/10/05 02:26:19;;;;;;;;;;;;;;;21.62;54.12;101727.66;2084319;28;791;-54
2021/10/05 02:27:20;;;;;;;;;;;;;;;21.60;53.09;101724.09;2084330;28;858;-53
2021/10/05 02:28:20;;;;;;;;;;;;;;;21.61;53.52;101720.47;2084304;28;734;-53
2021/10/05 02:29:21;;;;;;;;;;;;;;;21.61;53.83;101728.56;2084228;28;914;-53
2021/10/05 02:30:21;;;;;;;;;;;;;;;21.59;54.04;101727.72;2084265;28;867;-53
2021/10/05 02:31:22;;;;;;;;;;;;;;;21.60;53.75;101733.06;2084099;28;850;-53
2021/10/05 02:32:22;;;;;;;;;;;;;;;21.60;53.39;101735.75;2084116;28;855;-53
2021/10/05 02:33:22;;;;;;;;;;;;;;;21.62;53.83;101730.38;2084345;28;776;-53
2021/10/05 02:34:22;;;;;;;;;;;;;;;21.60;53.81;101729.47;2084079;28;1968;-53
2021/10/05 02:35:23;;;;;;;;;;;;;;;21.60;53.62;101732.19;2084208;28;810;-53
2021/10/05 02:36:23;;;;;;;;;;;;;;;21.59;53.84;101731.28;2083064;28;1193;-53
2021/10/05 02:37:23;;;;;;;;;;;;;;;21.61;53.35;101736.66;2075987;28;977;-53
2021/10/05 02:38:23;;;;;;;;;;;;;;;21.60;53.57;101729.47;2076106;28;981;-53
2021/10/05 02:39:23;;;;;;;;;;;;;;;21.59;53.26;101727.72;2076012;28;873;-53
2021/10/05 02:40:24;;;;;;;;;;;;;;;21.59;53.38;101735.78;2075700;28;985;-53
2021/10/05 02:41:24;;;;;;;;;;;;;;;21.59;53.40;101733.97;2076067;28;1171;-53
2021/10/05 02:42:25;;;;;;;;;;;;;;;21.59;53.67;101733.09;2076055;28;1041;-53
2021/10/05 02:43:25;;;;;;;;;;;;;;;21.60;53.74;101734.88;2075990;28;882;-53
2021/10/05 02:44:25;;;;;;;;;;;;;;;21.59;53.33;101731.28;2076075;28;973;-53
2021/10/05 02:45:25;;;;;;;;;;;;;;;21.59;53.37;101736.66;2075711;28;976;-53
2021/10/05 02:46:25;;;;;;;;;;;;;;;21.65;52.97;101737.47;2075971;28;981;-53
2021/10/05 02:47:26;;;;;;;;;;;;;;;21.60;53.05;101726.78;2075931;28;834;-53
2021/10/05 02:48:26;;;;;;;;;;;;;;;21.58;53.22;101720.53;2075942;28;789;-53
2021/10/05 02:49:26;;;;;;;;;;;;;;;21.59;53.74;101723.19;2075958;28;760;-53
2021/10/05 02:50:27;;;;;;;;;;;;;;;21.63;53.29;101724.06;2075954;28;950;-53
2021/10/05 02:51:27;;;;;;;;;;;;;;;21.60;53.86;101729.47;2075926;28;1029;-53
2021/10/05 02:52:27;;;;;;;;;;;;;;;21.58;53.38;101725.94;2075981;28;863;-53
2021/10/05 02:53:27;;;;;;;;;;;;;;;21.56;53.52;101728.66;2075972;28;869;-53
2021/10/05 02:54:27;;;;;;;;;;;;;;;21.57;54.23;101721.47;2075889;28;1894;-53
2021/10/05 02:55:28;;;;;;;;;;;;;;;21.56;53.55;101734.03;2075915;28;779;-53
2021/10/05 02:56:28;;;;;;;;;;;;;;;21.58;53.95;101729.50;2075535;28;1020;-53
2021/10/05 02:57:28;;;;;;;;;;;;;;;21.59;54.19;101730.41;2075903;28;1407;-53
2021/10/05 02:58:28;;;;;;;;;;;;;;;21.59;53.48;101727.72;2075934;28;800;-53
2021/10/05 02:59:29;;;;;;;;;;;;;;;21.59;53.48;101727.72;2075899;28;1028;-53
2021/10/05 03:00:29;;;;;;;;;;;;;;;21.57;53.64;101727.72;2075930;28;740;-53
2021/10/05 03:01:29;;;;;;;;;;;;;;;21.58;53.63;101732.19;2075688;28;857;-53
2021/10/05 03:02:29;;;;;;;;;;;;;;;21.57;53.48;101726.84;2075915;28;926;-53
2021/10/05 03:03:29;;;;;;;;;;;;;;;21.57;53.68;101735.81;2075827;28;1094;-53
2021/10/05 03:04:29;;;;;;;;;;;;;;;21.59;53.83;101728.59;2075836;28;772;-53
2021/10/05 03:05:30;;;;;;;;;;;;;;;21.58;53.92;101731.31;2075817;28;803;-53
2021/10/05 03:06:30;;;;;;;;;;;;;;;21.57;53.61;101724.16;2075711;28;1036;-53
2021/10/05 03:07:30;;;;;;;;;;;;;;;21.57;54.19;101726.84;2075657;28;973;-53
2021/10/05 03:08:30;;;;;;;;;;;;;;;21.59;53.66;101730.41;2075860;28;752;-53
2021/10/05 03:09:31;;;;;;;;;;;;;;;21.55;54.04;101726.88;2075567;28;801;-53
2021/10/05 03:10:31;;;;;;;;;;;;;;;21.56;53.46;101730.47;2075794;28;1197;-53
2021/10/05 03:11:32;;;;;;;;;;;;;;;21.56;53.43;101728.66;2075752;28;980;-53
2021/10/05 03:12:32;;;;;;;;;;;;;;;21.57;54.01;101722.34;2075600;28;1126;-53
2021/10/05 03:13:35;;;;;;;;;;;;;;;21.56;54.28;101712.47;2075839;28;847;-53
2021/10/05 03:14:35;;;;;;;;;;;;;;;21.57;53.37;101710.69;2075710;28;1972;-53
2021/10/05 03:15:36;;;;;;;;;;;;;;;21.59;53.92;101719.63;2075527;28;803;-53
2021/10/05 03:16:36;;;;;;;;;;;;;;;21.58;53.98;101720.53;2075786;28;983;-53
2021/10/05 03:17:36;;;;;;;;;;;;;;;21.58;53.70;101726.81;2075760;28;961;-53
2021/10/05 03:18:41;;;;;;;;;;;;;;;21.60;53.13;101721.41;2075442;28;839;-53
2021/10/05 03:19:41;;;;;;;;;;;;;;;21.60;53.89;101718.69;2075794;28;815;-53
2021/10/05 03:20:43;;;;;;;;;;;;;;;21.60;53.74;101724.09;2075720;28;977;-53
2021/10/05 03:21:43;;;;;;;;;;;;;;;21.58;53.50;101728.63;2075692;28;834;-53
2021/10/05 03:22:43;;;;;;;;;;;;;;;21.59;53.90;101722.31;2067000;28;1226;-53
2021/10/05 03:23:43;;;;;;;;;;;;;;;21.59;53.95;101719.63;2067022;28;823;-53
2021/10/05 03:24:44;;;;;;;;;;;;;;;21.58;53.54;101725.94;2075671;28;902;-53
2021/10/05 03:25:44;;;;;;;;;;;;;;;21.59;53.21;101727.72;2075671;28;779;-53
2021/10/05 03:26:44;;;;;;;;;;;;;;;21.59;53.57;101712.41;2075698;28;840;-53
2021/10/05 03:27:45;;;;;;;;;;;;;;;21.59;53.62;101714.22;2075650;28;799;-53
2021/10/05 03:28:45;;;;;;;;;;;;;;;21.57;53.67;101719.66;2074751;28;985;-52
2021/10/05 03:29:45;;;;;;;;;;;;;;;21.57;53.36;101719.66;2075087;28;827;-53
2021/10/05 03:30:45;;;;;;;;;;;;;;;21.57;53.31;101718.78;2075639;28;977;-53
2021/10/05 03:31:45;;;;;;;;;;;;;;;21.58;53.77;101707.06;2075665;28;1005;-54
2021/10/05 03:32:46;;;;;;;;;;;;;;;21.58;53.17;101712.47;2075696;28;815;-53
2021/10/05 03:33:46;;;;;;;;;;;;;;;21.59;53.44;101706.13;2075624;28;994;-53
2021/10/05 03:34:46;;;;;;;;;;;;;;;21.58;53.52;101709.75;2075586;28;1930;-53
2021/10/05 03:35:46;;;;;;;;;;;;;;;21.59;53.32;101711.53;2075591;28;824;-53
2021/10/05 03:36:46;;;;;;;;;;;;;;;21.56;54.00;101709.78;2079872;28;1474;-53
2021/10/05 03:37:47;;;;;;;;;;;;;;;21.59;54.04;101708.84;2083724;28;780;-53
2021/10/05 03:38:47;;;;;;;;;;;;;;;21.57;53.97;101710.69;2083783;28;843;-53
2021/10/05 03:39:47;;;;;;;;;;;;;;;21.59;53.91;101708.84;2083537;28;1017;-53
2021/10/05 03:40:48;;;;;;;;;;;;;;;21.58;53.78;101712.47;2083611;28;965;-53
2021/10/05 03:41:48;;;;;;;;;;;;;;;21.59;53.33;101706.13;2083767;28;811;-53
2021/10/05 03:42:48;;;;;;;;;;;;;;;21.56;53.46;101711.59;2083783;28;815;-53
2021/10/05 03:43:48;;;;;;;;;;;;;;;21.57;53.40;101708.00;2083760;28;1152;-53
2021/10/05 03:44:49;;;;;;;;;;;;;;;21.58;53.61;101712.47;2083762;28;859;-53
2021/10/05 03:45:50;;;;;;;;;;;;;;;21.58;53.14;101713.31;2083378;28;819;-53
2021/10/05 03:46:50;;;;;;;;;;;;;;;21.57;53.69;101710.69;2083724;28;800;-53
2021/10/05 03:47:50;;;;;;;;;;;;;;;21.57;53.24;101708.00;2083664;28;1016;-53
2021/10/05 03:48:50;;;;;;;;;;;;;;;21.58;53.32;101707.06;2083562;28;736;-53
2021/10/05 03:49:50;;;;;;;;;;;;;;;21.59;53.39;101711.53;2083723;28;1028;-53
2021/10/05 03:50:51;;;;;;;;;;;;;;;21.57;53.47;101710.69;2083688;28;1037;-53
2021/10/05 03:51:51;;;;;;;;;;;;;;;21.59;53.68;101707.00;2083656;28;1048;-53
2021/10/05 03:52:51;;;;;;;;;;;;;;;21.59;53.79;101707.00;2083641;28;810;-53
2021/10/05 03:53:51;;;;;;;;;;;;;;;21.55;53.17;101708.00;2083625;28;838;-53
2021/10/05 03:54:52;;;;;;;;;;;;;;;21.58;53.22;101698.97;2083555;28;1954;-53
2021/10/05 03:55:53;;;;;;;;;;;;;;;21.60;53.55;101707.91;2083576;28;772;-53
2021/10/05 03:56:53;;;;;;;;;;;;;;;21.58;53.82;101702.53;2083579;28;835;-53
2021/10/05 03:57:53;;;;;;;;;;;;;;;21.56;53.79;101700.81;2083557;28;779;-53
2021/10/05 03:58:54;;;;;;;;;;;;;;;21.57;53.68;101692.69;2083246;28;1189;-53
2021/10/05 03:59:54;;;;;;;;;;;;;;;21.57;53.19;101697.19;2083586;28;870;-53
2021/10/05 04:00:54;;;;;;;;;;;;;;;21.58;53.82;101690.88;2083634;28;798;-53
2021/10/05 04:01:54;;;;;;;;;;;;;;;21.58;53.13;101693.59;2083255;28;934;-53
2021/10/05 04:02:56;;;;;;;;;;;;;;;21.58;53.89;101693.59;2083542;28;859;-53
2021/10/05 04:03:56;;;;;;;;;;;;;;;22.09;51.90;101697.72;2083638;28;791;-53
2021/10/05 04:04:57;;;;;;;;;;;;;;;22.29;51.38;101693.59;2083174;28;779;-53
2021/10/05 04:05:57;;;;;;;;;;;;;;;22.38;51.16;101695.16;2083587;28;1040;-53
2021/10/05 04:06:57;;;;;;;;;;;;;;;22.45;50.81;101696.78;2083524;28;1239;-53
2021/10/05 04:07:57;;;;;;;;;;;;;;;22.50;50.58;101689.44;2083214;28;973;-53
2021/10/05 04:08:57;;;;;;;;;;;;;;;22.54;50.81;101691.13;2083530;28;978;-53
2021/10/05 04:09:57;;;;;;;;;;;;;;;22.63;50.68;101690.00;2083557;28;779;-53
2021/10/05 04:10:58;;;;;;;;;;;;;;;22.68;50.43;101687.16;2083241;28;1036;-53
2021/10/05 04:11:58;;;;;;;;;;;;;;;22.73;49.53;101691.47;2083530;28;791;-53
2021/10/05 04:12:58;;;;;;;;;;;;;;;22.73;49.69;101690.63;2083373;28;1213;-53
2021/10/05 04:13:58;;;;;;;;;;;;;;;22.76;49.87;101694.09;2083485;28;839;-54
2021/10/05 04:14:59;;;;;;;;;;;;;;;22.78;49.75;101692.25;2083430;28;1967;-55
2021/10/05 04:15:59;;;;;;;;;;;;;;;22.87;49.26;101698.31;2083425;28;981;-53
2021/10/05 04:16:59;;;;;;;;;;;;;;;22.87;49.38;101693.81;2083229;28;804;-53
2021/10/05 04:17:59;;;;;;;;;;;;;;;22.93;49.38;101693.63;2083509;28;1152;-53
2021/10/05 04:18:59;;;;;;;;;;;;;;;22.95;49.13;101691.75;2083473;28;815;-54
2021/10/05 04:19:59;;;;;;;;;;;;;;;22.97;48.90;101693.50;2083490;28;854;-53
2021/10/05 04:21:00;;;;;;;;;;;;;;;23.00;49.50;101688.00;2083394;28;844;-53
2021/10/05 04:22:00;;;;;;;;;;;;;;;22.98;49.21;101696.16;2083426;28;978;-53
2021/10/05 04:23:00;;;;;;;;;;;;;;;23.03;48.90;101698.72;2083345;28;866;-53
2021/10/05 04:24:00;;;;;;;;;;;;;;;23.06;48.88;101693.22;2083541;28;1235;-53
2021/10/05 04:25:00;;;;;;;;;;;;;;;23.06;49.52;101695.94;2083387;28;906;-53
2021/10/05 04:26:00;;;;;;;;;;;;;;;23.08;49.28;101691.38;2083450;28;678;-53
2021/10/05 04:27:02;;;;;;;;;;;;;;;23.13;48.50;101697.50;2083006;28;844;-53
2021/10/05 04:28:02;;;;;;;;;;;;;;;23.09;48.64;101696.72;2083401;28;1229;-53
2021/10/05 04:29:02;;;;;;;;;;;;;;;23.12;49.00;101690.34;2083286;28;980;-53
2021/10/05 04:30:04;;;;;;;;;;;;;;;23.15;48.71;101698.34;2083307;28;969;-53
2021/10/05 04:31:04;;;;;;;;;;;;;;;23.10;49.52;101690.41;2083318;28;1050;-53
2021/10/05 04:32:05;;;;;;;;;;;;;;;23.09;49.39;101688.63;2083299;28;981;-53
2021/10/05 04:33:05;;;;;;;;;;;;;;;23.17;49.14;101691.09;2083232;28;1138;-52
2021/10/05 04:34:05;;;;;;;;;;;;;;;23.17;48.88;101687.50;2083279;28;1973;-53
2021/10/05 04:35:06;;;;;;;;;;;;;;;23.18;48.63;101691.97;2082976;28;665;-53
2021/10/05 04:36:06;;;;;;;;;;;;;;;23.16;48.74;101688.44;2083376;28;959;-53
2021/10/05 04:37:06;;;;;;;;;;;;;;;23.17;49.08;101698.31;2083365;28;828;-53
2021/10/05 04:38:07;;;;;;;;;;;;;;;23.19;49.35;101691.91;2083411;28;827;-53
2021/10/05 04:39:07;;;;;;;;;;;;;;;23.16;48.75;101692.00;2083343;28;1149;-53
2021/10/05 04:40:08;;;;;;;;;;;;;;;23.22;48.64;101697.25;2082693;28;1049;-53
2021/10/05 04:41:08;;;;;;;;;;;;;;;23.22;48.68;101689.16;2083315;28;1327;-53
2021/10/05 04:42:08;;;;;;;;;;;;;;;23.18;49.36;101694.69;2083537;28;981;-53
2021/10/05 04:43:08;;;;;;;;;;;;;;;23.17;48.81;101699.19;2083349;28;811;-53
2021/10/05 04:44:09;;;;;;;;;;;;;;;23.21;49.06;101697.28;2083341;28;807;-53
2021/10/05 04:45:09;;;;;;;;;;;;;;;23.22;49.18;101697.25;2083301;28;965;-53
2021/10/05 04:46:09;;;;;;;;;;;;;;;23.23;49.14;101695.47;2083288;28;1460;-53
2021/10/05 04:47:09;;;;;;;;;;;;;;;23.29;48.59;101695.25;2083295;28;969;-53
2021/10/05 04:48:09;;;;;;;;;;;;;;;23.23;48.76;101706.28;2083322;28;1004;-53
2021/10/05 04:49:10;;;;;;;;;;;;;;;23.24;49.06;101703.50;2083255;28;1023;-53
2021/10/05 04:50:10;;;;;;;;;;;;;;;23.28;48.43;101692.59;2083190;28;854;-52
2021/10/05 04:51:10;;;;;;;;;;;;;;;23.30;48.52;101702.41;2083024;28;834;-53
2021/10/05 04:52:10;;;;;;;;;;;;;;;23.28;48.83;101703.41;2083263;28;1032;-53
2021/10/05 04:53:12;;;;;;;;;;;;;;;23.27;48.48;101707.91;2083140;28;795;-52
2021/10/05 04:54:12;;;;;;;;;;;;;;;23.26;48.53;101700.75;2083193;28;1885;-53
2021/10/05 04:55:12;;;;;;;;;;;;;;;23.28;48.58;101703.41;2083204;28;1036;-53
2021/10/05 04:56:12;;;;;;;;;;;;;;;23.27;48.66;101709.75;2075965;28;1109;-52
2021/10/05 04:57:13;;;;;;;;;;;;;;;23.28;48.88;101706.13;2075004;28;1032;-53
2021/10/05 04:58:13;;;;;;;;;;;;;;;23.26;49.05;101708.84;2074992;28;965;-53
2021/10/05 04:59:13;;;;;;;;;;;;;;;23.29;48.78;101714.16;2074853;28;1028;-52
2021/10/05 05:00:13;;;;;;;;;;;;;;;23.25;48.71;101707.13;2075100;28;815;-52
2021/10/05 05:01:13;;;;;;;;;;;;;;;23.29;48.96;101702.47;2074908;28;1111;-52
2021/10/05 05:02:14;;;;;;;;;;;;;;;23.26;49.70;101700.75;2075053;28;941;-53
2021/10/05 05:03:15;;;;;;;;;;;;;;;23.24;48.90;101703.50;2075015;28;1491;-52
2021/10/05 05:04:18;;;;;;;;;;;;;;;23.30;48.73;101694.31;2074706;28;815;-53
2021/10/05 05:05:18;;;;;;;;;;;;;;;23.31;48.45;101693.38;2075002;28;887;-53
2021/10/05 05:06:18;;;;;;;;;;;;;;;23.30;49.24;101685.34;2075036;28;1016;-53
2021/10/05 05:07:18;;;;;;;;;;;;;;;23.32;48.47;101684.34;2075086;28;884;-52
2021/10/05 05:08:18;;;;;;;;;;;;;;;23.28;49.16;101688.06;2075058;28;727;-53
2021/10/05 05:09:18;;;;;;;;;;;;;;;23.27;49.26;101688.13;2074830;28;819;-53
2021/10/05 05:10:19;;;;;;;;;;;;;;;23.27;48.69;101701.66;2075029;28;985;-54
2021/10/05 05:11:19;;;;;;;;;;;;;;;23.26;49.54;101698.03;2074953;28;1212;-53
2021/10/05 05:12:19;;;;;;;;;;;;;;;23.24;49.56;101695.41;2074736;28;1279;-53
2021/10/05 05:13:19;;;;;;;;;;;;;;;23.24;49.08;101687.28;2075092;28;1186;-53
2021/10/05 05:14:20;;;;;;;;;;;;;;;23.24;49.71;101705.34;2074847;28;1914;-53
2021/10/05 05:15:20;;;;;;;;;;;;;;;23.21;48.98;101706.28;2074797;28;764;-53
2021/10/05 05:16:20;;;;;;;;;;;;;;;23.19;50.59;101704.56;2074949;28;942;-53
2021/10/05 05:17:21;;;;;;;;;;;;;;;23.23;49.20;101685.53;2074931;28;997;-54
2021/10/05 05:18:22;;;;;;;;;;;;;;;23.24;49.71;101687.28;2074787;28;871;-53